Hyderabad, India

10:00 PM IST on September 04, 2015 (GMT +0530)
Hyderabad | | Change Station
CLOSE
Current Station
Airport
Location: Hyderabad,
Elevation: 1788 ft
Nearby Weather Stations

Elev 1788 ft 17.45 °N, 78.47 °E | Updated 50 minutes ago

Haze
Haze
79 °F
Feels Like 79 °F
N
5
Wind Variable Wind from East

Today
High -- | Low -- °F
--% Chance of Precip.
Yesterday
High -- | Low -- °F
Precip. -- in
6:02 AM 6:27 PM
Waning Gibbous, 58% visible
Pressure 29.98 in
Visibility 3.1 miles
Clouds Scattered Clouds 2000 ft
Mostly Cloudy 10000 ft
Dew Point 68 °F
Humidity 69%
Rainfall 0.00 in
Snow Depth Not available.
UV 0 out of 12
Pollen Not available.
Air Quality Not available.
Flu Activity Not available.
METAR VOHY 041540Z 09004KT 5000 HZ SCT020 BKN100 26/20 Q1015 NOSIG
Pressure 29.98 in
Visibility 3.1 miles
Clouds Scattered Clouds 2000 ft
Mostly Cloudy 10000 ft
Dew Point 68 °F
Humidity 69%
Rainfall 0.00 in
Snow Depth Not available.
UV 0 out of 12
Pollen Not available.
Air Quality Not available.
Flu Activity Not available.
METAR VOHY 041540Z 09004KT 5000 HZ SCT020 BKN100 26/20 Q1015 NOSIG

10-Day Weather Forecast

×

Almanac

Astronomy

Sep. 04, 2015 Rise Set
Actual Time
Civil Twilight
Nautical Twilight
Astronomical Twilight
Moon
Length of Visible Light
Length of Day
Tomorrow will be .
, % of the Moon is Illuminated

Today's Extremes

Country Highs Country Lows

Community

WunderPhotos

Upload Photos

1,852,220 photos uploaded!

WunderBlogs® & News

Nearby

Air Quality

  Air Quality AQ Index Pollutant
Not available.

Snow Depth

Station Depth Elevation

Earthquake Activity

City Distance Mag. Time & Date
Minimum magnitude displayed is 2.5.

Coastal Water Temperatures

Place Temperature

Stations

Nearby Weather Stations

Station Location Temp. Windchill Dew Point Humidity Wind Precip. Elev Updated Type